createdAt,value
2018-01-23T00:00:32.337Z,47.58
2018-01-23T00:01:06.007Z,46.00
2018-01-23T00:01:40.452Z,48.00
2018-01-23T00:02:14.130Z,47.95
2018-01-23T00:02:47.788Z,47.72
2018-01-23T00:03:21.478Z,48.25
2018-01-23T00:03:55.926Z,49.15
2018-01-23T00:04:29.598Z,48.25
2018-01-23T00:05:03.701Z,47.25
2018-01-23T00:05:37.370Z,46.75
2018-01-23T00:06:11.809Z,49.53
2018-01-23T00:06:45.489Z,47.05
2018-01-23T00:07:19.157Z,49.28
2018-01-23T00:07:53.608Z,48.92
2018-01-23T00:08:27.368Z,48.20
2018-01-23T00:09:01.830Z,49.03
2018-01-23T00:09:35.499Z,49.50
2018-01-23T00:10:09.167Z,50.72
2018-01-23T00:10:42.839Z,47.95
2018-01-23T00:11:17.286Z,45.95
2018-01-23T00:11:50.951Z,48.35
2018-01-23T00:12:24.615Z,47.25
2018-01-23T00:12:59.054Z,47.65
2018-01-23T00:13:32.767Z,48.90
2018-01-23T00:14:06.451Z,47.10
2018-01-23T00:14:40.127Z,49.85
2018-01-23T00:15:13.466Z,47.78
2018-01-23T00:15:47.904Z,50.42
2018-01-23T00:16:21.568Z,49.78
2018-01-23T00:16:56.009Z,48.65
2018-01-23T00:17:29.673Z,48.03
2018-01-23T00:18:03.939Z,46.65
2018-01-23T00:18:37.638Z,46.90
2018-01-23T00:19:11.329Z,47.13
2018-01-23T00:19:44.986Z,48.60
2018-01-23T00:20:18.676Z,47.42
2018-01-23T00:20:52.341Z,48.30
2018-01-23T00:21:26.023Z,48.08
2018-01-23T00:22:00.463Z,48.38
2018-01-23T00:22:34.121Z,48.83
2018-01-23T00:23:07.797Z,48.55
2018-01-23T00:23:42.270Z,50.08
2018-01-23T00:24:15.932Z,50.45
2018-01-23T00:24:49.611Z,50.63
2018-01-23T00:25:23.278Z,48.00
2018-01-23T00:25:57.717Z,47.67
2018-01-23T00:26:31.402Z,50.35
2018-01-23T00:27:04.760Z,48.78
2018-01-23T00:27:39.202Z,48.75
2018-01-23T00:28:12.874Z,50.08
2018-01-23T00:28:46.231Z,47.58
2018-01-23T00:29:19.889Z,51.42
2018-01-23T00:29:53.570Z,49.10
2018-01-23T00:30:27.254Z,49.20
2018-01-23T00:31:00.939Z,50.33
2018-01-23T00:31:34.607Z,48.95
2018-01-23T00:32:08.281Z,48.22
2018-01-23T00:32:42.781Z,47.62
2018-01-23T00:33:17.232Z,48.17
2018-01-23T00:33:50.928Z,49.40
2018-01-23T00:34:24.597Z,50.65
2018-01-23T00:34:58.269Z,51.03
2018-01-23T00:35:31.944Z,49.45
2018-01-23T00:36:06.377Z,48.90
2018-01-23T00:36:40.173Z,48.90
2018-01-23T00:37:13.841Z,49.20
2018-01-23T00:37:48.277Z,48.53
2018-01-23T00:38:21.965Z,46.08
2018-01-23T00:38:55.666Z,48.33
2018-01-23T00:39:29.346Z,50.47
2018-01-23T00:40:03.018Z,48.97
2018-01-23T00:40:36.684Z,48.75
2018-01-23T00:41:11.118Z,47.78
2018-01-23T00:41:44.790Z,46.70
2018-01-23T00:42:19.251Z,50.72
2018-01-23T00:42:52.922Z,49.22
2018-01-23T00:43:26.594Z,49.10
2018-01-23T00:44:00.299Z,49.30
2018-01-23T00:44:33.971Z,47.58
2018-01-23T00:45:07.646Z,49.72
2018-01-23T00:45:42.074Z,49.47
2018-01-23T00:46:15.754Z,47.50
2018-01-23T00:46:50.197Z,47.05
2018-01-23T00:47:23.859Z,46.72
2018-01-23T00:47:57.522Z,48.78
2018-01-23T00:48:31.191Z,46.47
2018-01-23T00:49:04.893Z,48.53
2018-01-23T00:49:38.575Z,48.10
2018-01-23T00:50:12.272Z,46.83
2018-01-23T00:50:45.947Z,45.40
2018-01-23T00:51:19.627Z,46.22
2018-01-23T00:51:53.301Z,46.15
2018-01-23T00:52:26.963Z,46.45
2018-01-23T00:53:00.833Z,48.33
2018-01-23T00:53:35.288Z,47.17
2018-01-23T00:54:08.994Z,47.30
2018-01-23T00:54:42.666Z,47.40
2018-01-23T00:55:16.334Z,47.35
2018-01-23T00:55:50.018Z,46.65
2018-01-23T00:56:23.715Z,48.30
2018-01-23T00:56:57.407Z,48.00
2018-01-23T00:57:31.094Z,48.13
2018-01-23T00:58:04.773Z,45.95
2018-01-23T00:58:38.451Z,45.97
2018-01-23T00:59:12.921Z,49.45
2018-01-23T00:59:46.603Z,49.75
2018-01-23T01:00:20.265Z,44.90
2018-01-23T01:00:53.929Z,47.47
2018-01-23T01:01:28.385Z,47.97
2018-01-23T01:02:02.063Z,46.75
2018-01-23T01:02:35.736Z,47.45
2018-01-23T01:03:09.406Z,48.92
2018-01-23T01:03:43.834Z,45.90
2018-01-23T01:04:17.531Z,48.15
2018-01-23T01:04:51.211Z,47.45
2018-01-23T01:05:24.895Z,48.83
2018-01-23T01:05:59.327Z,46.13
2018-01-23T01:06:32.990Z,46.17
2018-01-23T01:07:06.673Z,48.17
2018-01-23T01:07:41.114Z,49.65
2018-01-23T01:08:14.789Z,46.10
2018-01-23T01:08:48.454Z,47.50
2018-01-23T01:09:22.918Z,48.65
2018-01-23T01:09:56.603Z,48.42
2018-01-23T01:10:30.280Z,46.78
2018-01-23T01:11:03.950Z,47.10
2018-01-23T01:11:37.652Z,48.80
2018-01-23T01:12:11.493Z,47.42
2018-01-23T01:12:45.161Z,49.60
2018-01-23T01:13:18.856Z,49.20
2018-01-23T01:13:52.536Z,49.65
2018-01-23T01:14:26.242Z,48.40
2018-01-23T01:14:59.906Z,47.80
2018-01-23T01:15:33.568Z,49.00
2018-01-23T01:16:07.254Z,49.15
2018-01-23T01:16:41.685Z,48.25
2018-01-23T01:17:15.353Z,49.72
2018-01-23T01:17:49.029Z,49.05
2018-01-23T01:18:23.470Z,49.33
2018-01-23T01:18:57.139Z,51.67
2018-01-23T01:19:30.858Z,48.42
2018-01-23T01:20:04.193Z,51.45
2018-01-23T01:20:38.636Z,49.75
2018-01-23T01:21:12.321Z,47.50
2018-01-23T01:21:45.996Z,47.45
2018-01-23T01:22:20.437Z,49.92
2018-01-23T01:22:54.113Z,48.90
2018-01-23T01:23:27.787Z,48.47
2018-01-23T01:24:01.467Z,51.22
2018-01-23T01:24:35.945Z,50.97
2018-01-23T01:25:09.623Z,47.67
2018-01-23T01:25:43.284Z,49.60
2018-01-23T01:26:16.955Z,49.53
2018-01-23T01:26:50.627Z,49.88
2018-01-23T01:27:25.068Z,49.80
2018-01-23T01:27:58.734Z,46.85
2018-01-23T01:28:33.164Z,47.78
2018-01-23T01:29:06.837Z,47.70
2018-01-23T01:29:40.548Z,49.70
2018-01-23T01:30:14.226Z,50.53
2018-01-23T01:30:47.901Z,50.15
2018-01-23T01:31:22.349Z,47.35
2018-01-23T01:31:56.040Z,48.97
2018-01-23T01:32:29.723Z,50.67
2018-01-23T01:33:03.394Z,50.67
2018-01-23T01:33:37.069Z,50.03
2018-01-23T01:34:11.505Z,50.85
2018-01-23T01:34:45.201Z,50.78
2018-01-23T01:35:18.881Z,50.45
2018-01-23T01:35:52.567Z,50.50
2018-01-23T01:36:26.231Z,48.60
2018-01-23T01:37:00.677Z,48.13
2018-01-23T01:37:34.351Z,50.95
2018-01-23T01:38:08.023Z,49.15
2018-01-23T01:38:42.453Z,50.45
2018-01-23T01:39:16.128Z,48.97
2018-01-23T01:39:49.833Z,48.83
2018-01-23T01:40:23.507Z,48.13
2018-01-23T01:40:57.165Z,48.53
2018-01-23T01:41:30.830Z,50.55
2018-01-23T01:42:04.492Z,48.53
2018-01-23T01:42:38.162Z,46.95
2018-01-23T01:43:11.833Z,49.72
2018-01-23T01:43:46.275Z,49.90
2018-01-23T01:44:19.954Z,49.95
2018-01-23T01:44:53.645Z,48.65
2018-01-23T01:45:27.322Z,50.75
2018-01-23T01:46:01.757Z,51.28
2018-01-23T01:46:35.434Z,50.55
2018-01-23T01:47:08.778Z,50.88
2018-01-23T01:47:43.214Z,49.45
2018-01-23T01:48:16.888Z,51.65
2018-01-23T01:48:53.307Z,48.50
2018-01-23T01:49:27.031Z,51.45
2018-01-23T01:50:01.491Z,50.97
2018-01-23T01:50:35.166Z,47.65
2018-01-23T01:51:08.838Z,51.37
2018-01-23T01:51:42.516Z,47.55
2018-01-23T01:52:16.953Z,48.67
2018-01-23T01:52:50.636Z,50.63
2018-01-23T01:53:24.313Z,50.38
2018-01-23T01:53:58.048Z,45.40
2018-01-23T01:54:31.725Z,49.25
2018-01-23T01:55:05.443Z,49.63
2018-01-23T01:55:39.107Z,49.60
2018-01-23T01:56:12.467Z,50.50
2018-01-23T01:56:46.141Z,52.75
2018-01-23T01:57:19.818Z,51.50
2018-01-23T01:57:53.687Z,51.40
2018-01-23T01:58:27.361Z,50.12
2018-01-23T01:59:01.191Z,48.45
2018-01-23T01:59:35.642Z,49.85
2018-01-23T02:00:09.006Z,50.08
2018-01-23T02:00:42.683Z,49.80
2018-01-23T02:01:16.360Z,49.97
2018-01-23T02:01:50.795Z,49.30
2018-01-23T02:02:24.474Z,49.83
2018-01-23T02:02:58.153Z,50.35
2018-01-23T02:03:32.613Z,48.85
2018-01-23T02:04:06.318Z,49.10
2018-01-23T02:04:39.977Z,51.55
2018-01-23T02:05:13.684Z,48.22
2018-01-23T02:05:47.365Z,48.83
2018-01-23T02:06:21.053Z,48.30
2018-01-23T02:06:54.724Z,49.50
2018-01-23T02:07:28.399Z,49.17
2018-01-23T02:08:02.069Z,48.33
2018-01-23T02:08:36.511Z,49.47
2018-01-23T02:09:10.185Z,49.75
2018-01-23T02:09:43.852Z,47.30
2018-01-23T02:10:18.310Z,50.03
2018-01-23T02:10:51.974Z,48.05
2018-01-23T02:11:25.648Z,49.00
2018-01-23T02:12:00.089Z,49.85
2018-01-23T02:12:33.754Z,48.13
2018-01-23T02:13:08.186Z,48.97
2018-01-23T02:13:41.850Z,48.97
2018-01-23T02:14:16.286Z,46.17
2018-01-23T02:14:49.957Z,48.53
2018-01-23T02:15:23.641Z,48.03
2018-01-23T02:15:57.316Z,49.10
2018-01-23T02:16:31.747Z,49.00
2018-01-23T02:17:05.413Z,50.17
2018-01-23T02:17:39.871Z,50.22
2018-01-23T02:18:13.567Z,49.40
2018-01-23T02:18:47.234Z,48.70
2018-01-23T02:19:20.579Z,49.40
2018-01-23T02:19:54.688Z,49.85
2018-01-23T02:20:28.885Z,48.78
2018-01-23T02:21:03.330Z,50.22
2018-01-23T02:21:37.028Z,48.35
2018-01-23T02:22:10.705Z,50.12
2018-01-23T02:22:44.569Z,49.53
2018-01-23T02:23:19.005Z,48.65
2018-01-23T02:23:52.671Z,46.88
2018-01-23T02:24:26.375Z,48.75
2018-01-23T02:25:00.063Z,50.50
2018-01-23T02:25:33.748Z,47.75
2018-01-23T02:26:07.416Z,47.15
2018-01-23T02:26:41.845Z,47.40
2018-01-23T02:27:15.510Z,46.65
2018-01-23T02:27:50.049Z,49.13
2018-01-23T02:28:23.722Z,48.95
2018-01-23T02:28:58.167Z,48.22
2018-01-23T02:29:31.853Z,47.62
2018-01-23T02:30:05.521Z,49.22
2018-01-23T02:30:39.212Z,48.70
2018-01-23T02:31:12.891Z,48.80
2018-01-23T02:31:47.329Z,48.95
2018-01-23T02:32:21.059Z,50.08
2018-01-23T02:32:54.761Z,47.03
2018-01-23T02:33:28.426Z,49.80
2018-01-23T02:34:02.090Z,47.42
2018-01-23T02:34:35.769Z,49.28
2018-01-23T02:35:09.439Z,48.28
2018-01-23T02:35:43.142Z,49.78
2018-01-23T02:36:16.833Z,46.25
2018-01-23T02:36:50.506Z,49.03
2018-01-23T02:37:24.170Z,44.88
2018-01-23T02:37:57.850Z,49.25
2018-01-23T02:38:31.512Z,45.55
2018-01-23T02:39:04.338Z,48.47
2018-01-23T02:39:38.788Z,49.33
2018-01-23T02:40:12.469Z,50.60
2018-01-23T02:40:46.168Z,46.90
2018-01-23T02:41:19.849Z,48.70
2018-01-23T02:41:53.517Z,45.90
2018-01-23T02:42:27.189Z,48.53
2018-01-23T02:43:01.628Z,48.90
2018-01-23T02:43:35.301Z,47.25
2018-01-23T02:44:08.977Z,47.72
2018-01-23T02:44:43.422Z,49.67
2018-01-23T02:45:17.109Z,47.92
2018-01-23T02:45:50.800Z,47.88
2018-01-23T02:46:24.468Z,47.75
2018-01-23T02:46:58.240Z,48.00
2018-01-23T02:47:32.676Z,47.78
2018-01-23T02:48:06.352Z,49.03
2018-01-23T02:48:40.025Z,48.58
2018-01-23T02:49:14.483Z,47.80
2018-01-23T02:49:48.151Z,44.78
2018-01-23T02:50:21.822Z,49.33
2018-01-23T02:50:56.285Z,47.58
2018-01-23T02:51:29.955Z,45.95
2018-01-23T02:52:03.626Z,48.42
2018-01-23T02:52:37.288Z,46.28
2018-01-23T02:53:11.726Z,46.85
2018-01-23T02:53:45.425Z,48.08
2018-01-23T02:54:19.091Z,49.25
2018-01-23T02:54:53.560Z,47.70
2018-01-23T02:55:27.236Z,45.88
2018-01-23T02:56:00.919Z,48.33
2018-01-23T02:56:34.593Z,47.00
2018-01-23T02:57:08.254Z,48.58
2018-01-23T02:57:42.708Z,48.80
2018-01-23T02:58:16.556Z,46.90
2018-01-23T02:58:50.978Z,47.10
2018-01-23T02:59:24.635Z,48.53
2018-01-23T02:59:58.298Z,47.90
2018-01-23T03:00:31.970Z,49.35
2018-01-23T03:01:05.659Z,47.78
2018-01-23T03:01:39.306Z,46.58
2018-01-23T03:02:13.725Z,47.67
2018-01-23T03:02:47.387Z,46.85
2018-01-23T03:03:21.836Z,48.95
2018-01-23T03:03:55.506Z,45.65
2018-01-23T03:04:29.980Z,46.13
2018-01-23T03:05:03.668Z,47.70
2018-01-23T03:05:37.326Z,47.97
2018-01-23T03:06:11.010Z,45.65
2018-01-23T03:06:44.678Z,48.38
2018-01-23T03:07:18.344Z,46.40
2018-01-23T03:07:52.007Z,45.35
2018-01-23T03:08:25.334Z,45.55
2018-01-23T03:08:59.778Z,47.17
2018-01-23T03:09:33.434Z,48.87
2018-01-23T03:10:07.855Z,46.03
2018-01-23T03:10:41.565Z,46.10
2018-01-23T03:11:15.254Z,49.25
2018-01-23T03:11:48.923Z,46.42
2018-01-23T03:12:22.592Z,47.78
2018-01-23T03:12:57.019Z,46.50
2018-01-23T03:13:30.683Z,46.10
2018-01-23T03:14:04.777Z,45.55
2018-01-23T03:14:38.874Z,46.35
2018-01-23T03:15:13.299Z,44.47
2018-01-23T03:15:46.966Z,45.25
2018-01-23T03:16:20.650Z,48.25
2018-01-23T03:16:54.321Z,47.25
2018-01-23T03:17:27.987Z,46.00
2018-01-23T03:18:01.643Z,47.03
2018-01-23T03:18:36.077Z,47.20
2018-01-23T03:19:09.557Z,46.10
2018-01-23T03:19:43.227Z,47.38
2018-01-23T03:20:17.656Z,47.88
2018-01-23T03:20:51.322Z,46.05
2018-01-23T03:21:25.786Z,48.95
2018-01-23T03:21:59.438Z,45.17
2018-01-23T03:22:33.109Z,46.78
2018-01-23T03:23:07.535Z,47.55
2018-01-23T03:23:41.202Z,46.58
2018-01-23T03:24:15.641Z,48.17
2018-01-23T03:24:49.297Z,47.30
2018-01-23T03:25:23.733Z,46.50
2018-01-23T03:25:57.402Z,46.22
2018-01-23T03:26:31.086Z,46.97
2018-01-23T03:27:04.758Z,45.38
2018-01-23T03:27:39.187Z,46.58
2018-01-23T03:28:13.622Z,46.55
2018-01-23T03:28:47.286Z,48.53
2018-01-23T03:29:20.962Z,46.88
2018-01-23T03:29:55.390Z,48.60
2018-01-23T03:30:29.062Z,47.22
2018-01-23T03:31:03.507Z,47.00
2018-01-23T03:31:37.188Z,45.45
2018-01-23T03:32:10.850Z,47.45
2018-01-23T03:32:45.289Z,46.33
2018-01-23T03:33:18.770Z,46.70
2018-01-23T03:33:52.435Z,47.38
2018-01-23T03:34:26.105Z,47.42
2018-01-23T03:35:00.536Z,44.95
2018-01-23T03:35:34.204Z,45.15
2018-01-23T03:36:08.629Z,45.53
2018-01-23T03:36:43.066Z,46.72
2018-01-23T03:37:16.742Z,45.40
2018-01-23T03:37:50.397Z,47.55
2018-01-23T03:38:24.833Z,47.38
2018-01-23T03:38:58.490Z,46.75
2018-01-23T03:39:32.913Z,47.50
2018-01-23T03:40:07.353Z,46.20
2018-01-23T03:40:41.014Z,46.13
2018-01-23T03:41:15.458Z,47.38
2018-01-23T03:41:49.122Z,46.92
2018-01-23T03:42:22.807Z,47.00
2018-01-23T03:42:56.475Z,47.55
2018-01-23T03:43:30.134Z,46.05
2018-01-23T03:44:03.796Z,47.08
2018-01-23T03:44:37.457Z,47.75
2018-01-23T03:45:11.885Z,46.58
2018-01-23T03:45:45.558Z,46.53
2018-01-23T03:46:19.257Z,44.75
2018-01-23T03:46:52.922Z,47.25
2018-01-23T03:47:27.358Z,47.62
2018-01-23T03:48:01.025Z,48.65
2018-01-23T03:48:35.514Z,48.00
2018-01-23T03:49:09.315Z,45.63
2018-01-23T03:49:42.974Z,47.67
2018-01-23T03:50:16.635Z,47.97
2018-01-23T03:50:50.297Z,46.95
2018-01-23T03:51:24.738Z,48.67
2018-01-23T03:51:58.418Z,47.25
2018-01-23T03:52:32.082Z,47.62
2018-01-23T03:53:06.502Z,45.97
2018-01-23T03:53:40.188Z,46.88
2018-01-23T03:54:13.881Z,47.47
2018-01-23T03:54:47.558Z,49.35
2018-01-23T03:55:21.998Z,46.97
2018-01-23T03:55:55.654Z,46.58
2018-01-23T03:56:29.766Z,44.97
2018-01-23T03:57:03.436Z,49.10
2018-01-23T03:57:37.882Z,46.40
2018-01-23T03:58:11.557Z,48.35
2018-01-23T03:58:45.990Z,47.42
2018-01-23T03:59:19.654Z,48.15
2018-01-23T03:59:53.313Z,46.70
2018-01-23T04:00:26.976Z,46.13
2018-01-23T04:01:00.638Z,47.53
2018-01-23T04:01:34.349Z,47.38
2018-01-23T04:02:08.017Z,48.15
2018-01-23T04:02:41.681Z,46.95
2018-01-23T04:03:15.347Z,47.72
2018-01-23T04:03:49.009Z,48.03
2018-01-23T04:04:22.338Z,46.80
2018-01-23T04:04:56.013Z,45.95
2018-01-23T04:05:30.441Z,45.85
2018-01-23T04:06:04.107Z,48.25
2018-01-23T04:06:38.569Z,49.20
2018-01-23T04:07:12.233Z,47.75
2018-01-23T04:07:45.914Z,48.38
2018-01-23T04:08:19.569Z,47.58
2018-01-23T04:08:53.237Z,46.72
2018-01-23T04:09:26.902Z,47.67
2018-01-23T04:10:00.575Z,48.05
2018-01-23T04:10:33.947Z,47.58
2018-01-23T04:11:08.384Z,45.65
2018-01-23T04:11:42.071Z,47.00
2018-01-23T04:12:15.782Z,48.47
2018-01-23T04:12:49.663Z,49.28
2018-01-23T04:13:23.338Z,48.78
2018-01-23T04:13:56.991Z,47.58
2018-01-23T04:14:31.426Z,48.03
2018-01-23T04:15:05.086Z,48.58
2018-01-23T04:15:38.742Z,46.30
2018-01-23T04:16:12.415Z,46.00
2018-01-23T04:16:46.096Z,45.53
2018-01-23T04:17:19.762Z,48.53
2018-01-23T04:17:54.193Z,49.05
2018-01-23T04:18:27.858Z,46.80
2018-01-23T04:19:02.293Z,47.45
2018-01-23T04:19:35.952Z,47.90
2018-01-23T04:20:10.376Z,47.72
2018-01-23T04:20:43.716Z,47.88
2018-01-23T04:21:17.370Z,48.03
2018-01-23T04:21:51.039Z,46.90
2018-01-23T04:22:24.693Z,48.20
2018-01-23T04:22:58.389Z,48.45
2018-01-23T04:23:32.202Z,48.85
2018-01-23T04:24:05.867Z,46.72
2018-01-23T04:24:39.517Z,47.40
2018-01-23T04:25:13.186Z,48.17
2018-01-23T04:25:46.857Z,48.22
2018-01-23T04:26:20.526Z,48.05
2018-01-23T04:26:54.188Z,47.17
2018-01-23T04:27:27.847Z,46.75
2018-01-23T04:28:01.506Z,46.90
2018-01-23T04:28:35.932Z,47.92
2018-01-23T04:29:09.591Z,46.10
2018-01-23T04:29:44.021Z,48.00
2018-01-23T04:30:17.699Z,48.00
2018-01-23T04:30:52.143Z,49.17
2018-01-23T04:31:25.827Z,49.63
2018-01-23T04:31:59.503Z,45.35
2018-01-23T04:32:33.172Z,47.35
2018-01-23T04:33:07.592Z,48.97
2018-01-23T04:33:41.070Z,49.95
2018-01-23T04:34:15.310Z,49.03
2018-01-23T04:34:48.971Z,48.35
2018-01-23T04:35:22.618Z,47.25
2018-01-23T04:35:56.277Z,48.35
2018-01-23T04:36:29.934Z,49.35
2018-01-23T04:37:03.618Z,48.08
2018-01-23T04:37:38.057Z,48.00
2018-01-23T04:38:11.718Z,50.47
2018-01-23T04:38:46.141Z,48.33
2018-01-23T04:39:19.810Z,49.45
2018-01-23T04:39:54.253Z,51.50
2018-01-23T04:40:27.941Z,49.20
2018-01-23T04:41:01.617Z,46.70
2018-01-23T04:41:35.314Z,48.17
2018-01-23T04:42:08.999Z,47.80
2018-01-23T04:42:42.666Z,49.22
2018-01-23T04:43:17.102Z,48.15
2018-01-23T04:43:50.769Z,47.95
2018-01-23T04:44:24.444Z,46.55
2018-01-23T04:44:58.870Z,48.28
2018-01-23T04:45:32.532Z,48.58
2018-01-23T04:46:06.193Z,47.47
2018-01-23T04:46:39.853Z,47.25
2018-01-23T04:47:13.534Z,49.47
2018-01-23T04:47:47.198Z,48.65
2018-01-23T04:48:21.633Z,48.63
2018-01-23T04:48:55.301Z,47.80
2018-01-23T04:49:29.729Z,47.78
2018-01-23T04:50:03.387Z,46.13
2018-01-23T04:50:37.824Z,49.22
2018-01-23T04:51:11.494Z,47.70
2018-01-23T04:51:45.161Z,49.90
2018-01-23T04:52:18.840Z,47.80
2018-01-23T04:52:52.498Z,49.70
2018-01-23T04:53:26.146Z,48.60
2018-01-23T04:54:00.633Z,48.03
2018-01-23T04:54:34.441Z,47.00
2018-01-23T04:55:08.870Z,48.95
2018-01-23T04:55:42.542Z,49.15
2018-01-23T04:56:16.970Z,46.88
2018-01-23T04:56:50.634Z,44.92
2018-01-23T04:57:25.094Z,49.40
2018-01-23T04:57:58.755Z,47.50
2018-01-23T04:58:32.992Z,47.15
2018-01-23T04:59:06.661Z,47.75
2018-01-23T04:59:40.314Z,47.67
2018-01-23T05:00:14.757Z,48.47
2018-01-23T05:00:48.422Z,48.80
2018-01-23T05:01:22.857Z,49.58
2018-01-23T05:01:56.513Z,49.00
2018-01-23T05:02:30.969Z,47.28
2018-01-23T05:03:04.634Z,48.20
2018-01-23T05:03:38.297Z,48.60
2018-01-23T05:04:13.254Z,48.08
2018-01-23T05:04:46.917Z,45.12
2018-01-23T05:05:21.363Z,48.40
2018-01-23T05:05:55.025Z,46.88
2018-01-23T05:06:28.736Z,44.70
2018-01-23T05:07:03.338Z,46.60
2018-01-23T05:07:36.992Z,49.88
2018-01-23T05:08:11.428Z,45.03
2018-01-23T05:08:45.094Z,47.28
2018-01-23T05:09:19.530Z,50.88
2018-01-23T05:09:53.198Z,46.97
2018-01-23T05:10:27.293Z,52.40
2018-01-23T05:11:02.050Z,47.05
2018-01-23T05:11:35.720Z,48.00
2018-01-23T05:12:09.414Z,47.55
2018-01-23T05:12:43.070Z,47.30
2018-01-23T05:13:17.490Z,48.17
2018-01-23T05:13:51.917Z,49.30
2018-01-23T05:14:25.247Z,46.30
2018-01-23T05:14:59.669Z,46.58
2018-01-23T05:15:34.106Z,46.92
2018-01-23T05:16:07.777Z,48.13
2018-01-23T05:16:42.397Z,49.63
2018-01-23T05:17:16.084Z,47.38
2018-01-23T05:17:50.534Z,48.75
2018-01-23T05:18:24.188Z,49.33
2018-01-23T05:18:58.991Z,46.30
2018-01-23T05:19:33.424Z,46.78
2018-01-23T05:20:07.146Z,47.30
2018-01-23T05:20:40.807Z,47.95
2018-01-23T05:21:14.479Z,45.45
2018-01-23T05:21:48.143Z,47.60
2018-01-23T05:22:21.826Z,47.42
2018-01-23T05:22:55.515Z,49.53
2018-01-23T05:23:29.950Z,46.22
2018-01-23T05:24:04.045Z,48.47
2018-01-23T05:24:38.464Z,49.30
2018-01-23T05:25:12.141Z,48.22
2018-01-23T05:25:46.574Z,48.20
2018-01-23T05:26:20.238Z,46.75
2018-01-23T05:26:54.682Z,48.13
2018-01-23T05:27:28.362Z,48.63
2018-01-23T05:28:02.030Z,47.60
2018-01-23T05:28:35.696Z,49.58
2018-01-23T05:29:10.117Z,50.25
2018-01-23T05:29:44.547Z,48.78
2018-01-23T05:30:18.201Z,46.97
2018-01-23T05:30:51.862Z,48.70
2018-01-23T05:31:25.519Z,47.90
2018-01-23T05:31:59.194Z,48.85
2018-01-23T05:32:32.873Z,48.80
2018-01-23T05:33:07.316Z,48.75
2018-01-23T05:33:40.992Z,49.10
2018-01-23T05:34:14.671Z,49.65
2018-01-23T05:34:48.327Z,47.78
2018-01-23T05:35:21.985Z,46.88
2018-01-23T05:35:55.670Z,48.13
2018-01-23T05:36:29.333Z,50.10
2018-01-23T05:37:02.999Z,47.75
2018-01-23T05:37:37.457Z,48.55
2018-01-23T05:38:11.120Z,47.62
2018-01-23T05:38:44.797Z,47.67
2018-01-23T05:39:19.230Z,46.25
2018-01-23T05:39:52.898Z,48.60
2018-01-23T05:40:26.557Z,48.22
2018-01-23T05:41:00.221Z,50.95
2018-01-23T05:41:33.909Z,49.15
2018-01-23T05:42:07.254Z,50.00
2018-01-23T05:42:40.934Z,46.55
2018-01-23T05:43:14.599Z,49.10
2018-01-23T05:43:48.267Z,48.40
2018-01-23T05:44:21.934Z,50.03
2018-01-23T05:44:55.610Z,49.85
2018-01-23T05:45:29.282Z,48.30
2018-01-23T05:46:02.948Z,47.88
2018-01-23T05:46:36.612Z,48.35
2018-01-23T05:47:10.278Z,47.80
2018-01-23T05:47:43.962Z,47.15
2018-01-23T05:48:17.630Z,49.30
2018-01-23T05:48:51.306Z,49.13
2018-01-23T05:49:25.734Z,49.53
2018-01-23T05:49:59.410Z,48.80
2018-01-23T05:50:33.852Z,51.20
2018-01-23T05:51:07.515Z,49.50
2018-01-23T05:51:41.177Z,48.65
2018-01-23T05:52:15.615Z,50.08
2018-01-23T05:52:49.318Z,49.95
2018-01-23T05:53:22.999Z,49.30
2018-01-23T05:53:56.670Z,46.92
2018-01-23T05:54:31.094Z,47.97
2018-01-23T05:55:04.115Z,46.05
2018-01-23T05:55:37.774Z,49.42
2018-01-23T05:56:11.438Z,49.90
2018-01-23T05:56:45.114Z,48.40
2018-01-23T05:57:19.380Z,49.88
2018-01-23T05:57:53.092Z,48.35
2018-01-23T05:58:26.762Z,50.00
2018-01-23T05:59:00.426Z,48.40
2018-01-23T05:59:34.118Z,50.47
2018-01-23T06:00:07.557Z,48.75
2018-01-23T06:00:41.974Z,48.03
2018-01-23T06:01:16.389Z,47.58
2018-01-23T06:01:50.820Z,47.28
2018-01-23T06:02:24.500Z,49.97
2018-01-23T06:02:58.201Z,50.88
2018-01-23T06:03:31.862Z,49.75
2018-01-23T06:04:06.273Z,47.08
2018-01-23T06:04:39.942Z,48.70
2018-01-23T06:05:14.394Z,49.70
2018-01-23T06:05:48.063Z,48.25
2018-01-23T06:06:21.396Z,48.67
2018-01-23T06:06:55.060Z,49.60
2018-01-23T06:07:28.746Z,49.88
2018-01-23T06:08:02.434Z,47.33
2018-01-23T06:08:36.201Z,49.85
2018-01-23T06:09:09.886Z,48.30
2018-01-23T06:09:43.566Z,49.67
2018-01-23T06:10:18.013Z,48.13
2018-01-23T06:10:51.678Z,47.08
2018-01-23T06:11:25.351Z,46.10
2018-01-23T06:11:59.781Z,48.83
2018-01-23T06:12:33.434Z,47.00
2018-01-23T06:13:07.109Z,48.90
2018-01-23T06:13:40.762Z,48.15
2018-01-23T06:14:14.436Z,47.28
2018-01-23T06:14:48.098Z,48.78
2018-01-23T06:15:22.534Z,47.05
2018-01-23T06:15:56.195Z,47.58
2018-01-23T06:16:30.625Z,46.60
2018-01-23T06:17:04.318Z,48.55
2018-01-23T06:17:37.983Z,48.50
2018-01-23T06:18:12.442Z,48.00
2018-01-23T06:18:46.118Z,47.22
2018-01-23T06:19:19.269Z,47.38
2018-01-23T06:19:53.744Z,46.40
2018-01-23T06:20:27.405Z,48.22
2018-01-23T06:21:00.886Z,49.38
2018-01-23T06:21:34.543Z,46.20
2018-01-23T06:22:08.977Z,49.85
2018-01-23T06:22:42.661Z,49.35
2018-01-23T06:23:16.363Z,47.13
2018-01-23T06:23:50.026Z,47.22
2018-01-23T06:24:23.693Z,47.78
2018-01-23T06:24:58.118Z,49.55
2018-01-23T06:25:31.793Z,46.95
2018-01-23T06:26:06.223Z,47.42
2018-01-23T06:26:39.887Z,45.75
2018-01-23T06:27:14.342Z,48.38
2018-01-23T06:27:48.015Z,49.58
2018-01-23T06:28:21.901Z,46.97
2018-01-23T06:28:55.558Z,47.97
2018-01-23T06:29:29.235Z,46.58
2018-01-23T06:30:02.894Z,46.03
2018-01-23T06:30:36.573Z,46.60
2018-01-23T06:31:10.239Z,46.67
2018-01-23T06:31:44.678Z,48.15
2018-01-23T06:32:18.370Z,47.38
2018-01-23T06:32:51.865Z,45.65
2018-01-23T06:33:25.374Z,44.40
2018-01-23T06:33:58.862Z,46.20
2018-01-23T06:34:32.525Z,47.45
2018-01-23T06:35:06.193Z,46.95
2018-01-23T06:35:39.868Z,47.85
2018-01-23T06:36:13.539Z,47.72
2018-01-23T06:36:47.983Z,47.00
2018-01-23T06:37:21.653Z,46.55
2018-01-23T06:37:55.331Z,46.45
2018-01-23T06:38:29.800Z,45.90
2018-01-23T06:39:02.934Z,46.70
2018-01-23T06:39:36.600Z,47.15
2018-01-23T06:40:11.026Z,44.88
2018-01-23T06:40:44.514Z,45.90
2018-01-23T06:41:18.193Z,47.38
2018-01-23T06:41:52.627Z,43.70
2018-01-23T06:42:26.285Z,45.22
2018-01-23T06:43:00.730Z,44.70
2018-01-23T06:43:34.441Z,47.13
2018-01-23T06:44:08.109Z,45.72
2018-01-23T06:44:41.773Z,45.58
2018-01-23T06:45:15.445Z,49.90
2018-01-23T06:45:49.864Z,49.15
2018-01-23T06:46:24.286Z,51.72
2018-01-23T06:46:57.960Z,47.67
2018-01-23T06:47:32.381Z,45.22
2018-01-23T06:48:06.042Z,47.13
2018-01-23T06:48:39.739Z,46.35
2018-01-23T06:49:14.173Z,44.10
2018-01-23T06:49:47.862Z,45.15
2018-01-23T06:50:21.538Z,44.08
2018-01-23T06:50:55.211Z,45.40
2018-01-23T06:51:29.663Z,47.67
2018-01-23T06:52:03.342Z,45.45
2018-01-23T06:52:37.027Z,42.58
2018-01-23T06:53:10.709Z,45.20
2018-01-23T06:53:44.394Z,44.60
2018-01-23T06:54:18.054Z,47.67
2018-01-23T06:54:51.719Z,46.15
2018-01-23T06:55:25.389Z,44.03
2018-01-23T06:55:59.066Z,42.38
2018-01-23T06:56:32.737Z,41.53
2018-01-23T06:57:07.185Z,43.70
2018-01-23T06:57:40.941Z,42.03
2018-01-23T06:58:15.366Z,41.75
2018-01-23T06:58:49.066Z,41.03
2018-01-23T06:59:22.730Z,40.80
2018-01-23T06:59:56.400Z,40.60
2018-01-23T07:00:30.638Z,43.38
2018-01-23T07:01:04.301Z,42.35
2018-01-23T07:01:38.722Z,41.60
2018-01-23T07:02:12.406Z,42.95
2018-01-23T07:02:46.086Z,42.45
2018-01-23T07:03:20.379Z,42.80
2018-01-23T07:03:54.836Z,42.50
2018-01-23T07:04:28.486Z,40.60
2018-01-23T07:05:02.905Z,40.25
2018-01-23T07:05:36.575Z,41.75
2018-01-23T07:06:11.009Z,45.30
2018-01-23T07:06:44.673Z,42.30
2018-01-23T07:07:19.123Z,42.80
2018-01-23T07:07:52.789Z,41.63
2018-01-23T07:08:26.459Z,45.53
2018-01-23T07:09:00.970Z,42.60
2018-01-23T07:09:35.395Z,42.22
2018-01-23T07:10:09.068Z,41.97
2018-01-23T07:10:43.506Z,42.30
2018-01-23T07:11:17.170Z,43.22
2018-01-23T07:11:51.594Z,42.72
2018-01-23T07:12:25.254Z,42.58
2018-01-23T07:12:59.826Z,43.45
2018-01-23T07:13:33.513Z,42.88
2018-01-23T07:14:07.205Z,42.65
2018-01-23T07:14:40.876Z,45.92
2018-01-23T07:15:14.542Z,43.78
2018-01-23T07:15:48.211Z,44.28
2018-01-23T07:16:21.872Z,43.65